sensor_id;sensor_type;location;lat;lon;timestamp;temperature;humidity
30069;DHT22;16894;49.456;10.644;2023-06-22T00:00:58;17.30;99.90
30069;DHT22;16894;49.456;10.644;2023-06-22T00:03:25;17.20;99.90
30069;DHT22;16894;49.456;10.644;2023-06-22T00:05:51;17.30;99.90
30069;DHT22;16894;49.456;10.644;2023-06-22T00:08:17;17.30;99.90
30069;DHT22;16894;49.456;10.644;2023-06-22T00:10:44;17.40;99.90
30069;DHT22;16894;49.456;10.644;2023-06-22T00:13:11;17.40;99.90
30069;DHT22;16894;49.456;10.644;2023-06-22T00:15:39;17.40;99.90
30069;DHT22;16894;49.456;10.644;2023-06-22T00:18:06;17.30;99.90
30069;DHT22;16894;49.456;10.644;2023-06-22T00:20:32;17.30;99.90
30069;DHT22;16894;49.456;10.644;2023-06-22T00:22:58;17.00;99.90
30069;DHT22;16894;49.456;10.644;2023-06-22T00:25:24;16.70;99.90
30069;DHT22;16894;49.456;10.644;2023-06-22T00:27:50;16.70;99.90
30069;DHT22;16894;49.456;10.644;2023-06-22T00:30:17;16.60;99.90
30069;DHT22;16894;49.456;10.644;2023-06-22T00:32:44;16.60;99.90
30069;DHT22;16894;49.456;10.644;2023-06-22T00:35:11;16.60;99.90
30069;DHT22;16894;49.456;10.644;2023-06-22T00:37:37;16.60;99.90
30069;DHT22;16894;49.456;10.644;2023-06-22T00:40:04;16.60;99.90
30069;DHT22;16894;49.456;10.644;2023-06-22T00:42:30;16.60;99.90
30069;DHT22;16894;49.456;10.644;2023-06-22T00:44:56;16.60;99.90
30069;DHT22;16894;49.456;10.644;2023-06-22T00:47:22;16.60;99.90
30069;DHT22;16894;49.456;10.644;2023-06-22T00:49:49;16.60;99.90
30069;DHT22;16894;49.456;10.644;2023-06-22T00:52:17;16.70;99.90
30069;DHT22;16894;49.456;10.644;2023-06-22T00:54:50;16.70;99.90
30069;DHT22;16894;49.456;10.644;2023-06-22T00:57:17;16.70;99.90
30069;DHT22;16894;49.456;10.644;2023-06-22T00:59:47;16.60;99.90
30069;DHT22;16894;49.456;10.644;2023-06-22T01:02:14;16.70;99.90
30069;DHT22;16894;49.456;10.644;2023-06-22T01:04:40;16.70;99.90
30069;DHT22;16894;49.456;10.644;2023-06-22T01:10:30;16.70;99.90
30069;DHT22;16894;49.456;10.644;2023-06-22T01:13:02;16.60;99.90
30069;DHT22;16894;49.456;10.644;2023-06-22T01:15:45;16.30;99.90
30069;DHT22;16894;49.456;10.644;2023-06-22T01:18:15;16.30;99.90
30069;DHT22;16894;49.456;10.644;2023-06-22T01:20:42;16.30;99.90
30069;DHT22;16894;49.456;10.644;2023-06-22T01:25:53;16.20;99.90
30069;DHT22;16894;49.456;10.644;2023-06-22T01:31:01;16.20;99.90
30069;DHT22;16894;49.456;10.644;2023-06-22T01:33:33;16.20;99.90
30069;DHT22;16894;49.456;10.644;2023-06-22T01:36:01;16.20;99.90
30069;DHT22;16894;49.456;10.644;2023-06-22T01:38:29;16.20;99.90
30069;DHT22;16894;49.456;10.644;2023-06-22T01:40:56;16.20;99.90
30069;DHT22;16894;49.456;10.644;2023-06-22T01:43:25;16.20;99.90
30069;DHT22;16894;49.456;10.644;2023-06-22T01:45:52;16.10;99.90
30069;DHT22;16894;49.456;10.644;2023-06-22T01:48:19;16.20;99.90
30069;DHT22;16894;49.456;10.644;2023-06-22T01:50:45;16.20;99.90
30069;DHT22;16894;49.456;10.644;2023-06-22T01:53:12;16.20;99.90
30069;DHT22;16894;49.456;10.644;2023-06-22T01:55:37;16.30;99.90
30069;DHT22;16894;49.456;10.644;2023-06-22T01:58:03;16.30;99.90
30069;DHT22;16894;49.456;10.644;2023-06-22T02:00:32;16.40;99.90
30069;DHT22;16894;49.456;10.644;2023-06-22T02:03:38;16.30;99.90
30069;DHT22;16894;49.456;10.644;2023-06-22T02:06:03;16.30;99.90
30069;DHT22;16894;49.456;10.644;2023-06-22T02:08:35;16.30;99.90
30069;DHT22;16894;49.456;10.644;2023-06-22T02:11:03;16.00;99.90
30069;DHT22;16894;49.456;10.644;2023-06-22T02:13:31;15.90;99.90
30069;DHT22;16894;49.456;10.644;2023-06-22T02:15:58;15.90;99.90
30069;DHT22;16894;49.456;10.644;2023-06-22T02:18:25;15.90;99.90
30069;DHT22;16894;49.456;10.644;2023-06-22T02:20:51;15.80;99.90
30069;DHT22;16894;49.456;10.644;2023-06-22T02:23:17;15.80;99.90
30069;DHT22;16894;49.456;10.644;2023-06-22T02:25:43;15.90;99.90
30069;DHT22;16894;49.456;10.644;2023-06-22T02:28:09;15.90;99.90
30069;DHT22;16894;49.456;10.644;2023-06-22T02:30:36;15.80;99.90
30069;DHT22;16894;49.456;10.644;2023-06-22T02:33:02;15.70;99.90
30069;DHT22;16894;49.456;10.644;2023-06-22T02:35:28;15.80;99.90
30069;DHT22;16894;49.456;10.644;2023-06-22T02:37:58;15.80;99.90
30069;DHT22;16894;49.456;10.644;2023-06-22T02:40:26;15.80;99.90
30069;DHT22;16894;49.456;10.644;2023-06-22T02:42:51;15.90;99.90
30069;DHT22;16894;49.456;10.644;2023-06-22T02:45:17;15.90;99.90
30069;DHT22;16894;49.456;10.644;2023-06-22T02:47:42;16.00;99.90
30069;DHT22;16894;49.456;10.644;2023-06-22T02:50:08;16.10;99.90
30069;DHT22;16894;49.456;10.644;2023-06-22T02:52:34;16.20;99.90
30069;DHT22;16894;49.456;10.644;2023-06-22T02:55:00;16.20;99.90
30069;DHT22;16894;49.456;10.644;2023-06-22T02:57:26;16.20;99.90
30069;DHT22;16894;49.456;10.644;2023-06-22T02:59:51;16.20;99.90
30069;DHT22;16894;49.456;10.644;2023-06-22T03:02:17;16.30;99.90
30069;DHT22;16894;49.456;10.644;2023-06-22T03:04:44;16.30;99.90
30069;DHT22;16894;49.456;10.644;2023-06-22T03:07:09;16.40;99.90
30069;DHT22;16894;49.456;10.644;2023-06-22T03:09:35;16.40;99.90
30069;DHT22;16894;49.456;10.644;2023-06-22T03:12:00;16.50;99.90
30069;DHT22;16894;49.456;10.644;2023-06-22T03:14:27;16.60;99.90
30069;DHT22;16894;49.456;10.644;2023-06-22T03:16:53;16.60;99.90
30069;DHT22;16894;49.456;10.644;2023-06-22T03:19:18;16.60;99.90
30069;DHT22;16894;49.456;10.644;2023-06-22T03:21:45;16.60;99.90
30069;DHT22;16894;49.456;10.644;2023-06-22T03:24:11;16.60;99.90
30069;DHT22;16894;49.456;10.644;2023-06-22T03:26:36;16.60;99.90
30069;DHT22;16894;49.456;10.644;2023-06-22T03:29:02;16.60;99.90
30069;DHT22;16894;49.456;10.644;2023-06-22T03:31:28;16.60;99.90
30069;DHT22;16894;49.456;10.644;2023-06-22T03:33:54;16.70;99.90
30069;DHT22;16894;49.456;10.644;2023-06-22T03:36:19;16.60;99.90
30069;DHT22;16894;49.456;10.644;2023-06-22T03:38:49;16.50;99.90
30069;DHT22;16894;49.456;10.644;2023-06-22T03:41:15;16.50;99.90
30069;DHT22;16894;49.456;10.644;2023-06-22T03:43:41;16.60;99.90
30069;DHT22;16894;49.456;10.644;2023-06-22T03:46:07;16.60;99.90
30069;DHT22;16894;49.456;10.644;2023-06-22T03:48:33;16.60;99.90
30069;DHT22;16894;49.456;10.644;2023-06-22T03:51:02;16.60;99.90
30069;DHT22;16894;49.456;10.644;2023-06-22T03:53:28;16.60;99.90
30069;DHT22;16894;49.456;10.644;2023-06-22T03:55:54;16.70;99.90
30069;DHT22;16894;49.456;10.644;2023-06-22T03:58:21;16.70;99.90
30069;DHT22;16894;49.456;10.644;2023-06-22T04:00:50;16.60;99.90
30069;DHT22;16894;49.456;10.644;2023-06-22T04:03:16;16.70;99.90
30069;DHT22;16894;49.456;10.644;2023-06-22T04:05:44;16.70;99.90
30069;DHT22;16894;49.456;10.644;2023-06-22T04:08:10;16.70;99.90
30069;DHT22;16894;49.456;10.644;2023-06-22T04:10:36;16.80;99.90
30069;DHT22;16894;49.456;10.644;2023-06-22T04:13:01;16.80;99.90
30069;DHT22;16894;49.456;10.644;2023-06-22T04:15:27;16.80;99.90
30069;DHT22;16894;49.456;10.644;2023-06-22T04:17:55;16.90;99.90
30069;DHT22;16894;49.456;10.644;2023-06-22T04:20:21;16.90;99.90
30069;DHT22;16894;49.456;10.644;2023-06-22T04:22:47;16.90;99.90
30069;DHT22;16894;49.456;10.644;2023-06-22T04:25:13;17.00;99.90
30069;DHT22;16894;49.456;10.644;2023-06-22T04:27:39;17.10;99.90
30069;DHT22;16894;49.456;10.644;2023-06-22T04:30:07;17.10;99.90
30069;DHT22;16894;49.456;10.644;2023-06-22T04:32:33;17.10;99.90
30069;DHT22;16894;49.456;10.644;2023-06-22T04:35:02;17.20;99.90
30069;DHT22;16894;49.456;10.644;2023-06-22T04:37:28;17.20;99.90
30069;DHT22;16894;49.456;10.644;2023-06-22T04:39:53;17.20;99.90
30069;DHT22;16894;49.456;10.644;2023-06-22T04:42:19;17.30;99.90
30069;DHT22;16894;49.456;10.644;2023-06-22T04:44:45;17.30;99.90
30069;DHT22;16894;49.456;10.644;2023-06-22T04:47:11;17.30;99.90
30069;DHT22;16894;49.456;10.644;2023-06-22T04:49:37;17.30;99.90
30069;DHT22;16894;49.456;10.644;2023-06-22T04:52:07;17.30;99.90
30069;DHT22;16894;49.456;10.644;2023-06-22T04:54:33;17.40;99.90
30069;DHT22;16894;49.456;10.644;2023-06-22T04:57:05;17.40;99.90
30069;DHT22;16894;49.456;10.644;2023-06-22T04:59:36;17.50;99.90
30069;DHT22;16894;49.456;10.644;2023-06-22T05:02:04;17.50;99.90
30069;DHT22;16894;49.456;10.644;2023-06-22T05:04:31;17.60;99.90
30069;DHT22;16894;49.456;10.644;2023-06-22T05:06:57;17.60;99.90
30069;DHT22;16894;49.456;10.644;2023-06-22T05:09:23;17.70;99.90
30069;DHT22;16894;49.456;10.644;2023-06-22T05:11:52;17.80;99.90
30069;DHT22;16894;49.456;10.644;2023-06-22T05:14:18;17.90;99.90
30069;DHT22;16894;49.456;10.644;2023-06-22T05:16:45;17.90;99.90
30069;DHT22;16894;49.456;10.644;2023-06-22T05:19:11;18.10;99.90
30069;DHT22;16894;49.456;10.644;2023-06-22T05:21:37;18.10;99.90
30069;DHT22;16894;49.456;10.644;2023-06-22T05:24:03;18.20;99.90
30069;DHT22;16894;49.456;10.644;2023-06-22T05:26:30;18.30;99.90
30069;DHT22;16894;49.456;10.644;2023-06-22T05:28:56;18.40;99.90
30069;DHT22;16894;49.456;10.644;2023-06-22T05:31:23;18.50;99.90
30069;DHT22;16894;49.456;10.644;2023-06-22T05:33:50;18.60;99.90
30069;DHT22;16894;49.456;10.644;2023-06-22T05:36:17;18.70;99.90
30069;DHT22;16894;49.456;10.644;2023-06-22T05:38:45;18.90;99.90
30069;DHT22;16894;49.456;10.644;2023-06-22T05:41:11;19.00;99.90
30069;DHT22;16894;49.456;10.644;2023-06-22T05:43:37;19.00;99.90
30069;DHT22;16894;49.456;10.644;2023-06-22T05:46:03;19.10;99.90
30069;DHT22;16894;49.456;10.644;2023-06-22T05:48:29;19.20;99.90
30069;DHT22;16894;49.456;10.644;2023-06-22T05:50:55;19.30;99.90
30069;DHT22;16894;49.456;10.644;2023-06-22T05:53:21;19.40;99.90
30069;DHT22;16894;49.456;10.644;2023-06-22T05:55:46;19.40;99.90
30069;DHT22;16894;49.456;10.644;2023-06-22T05:58:12;19.50;99.90
30069;DHT22;16894;49.456;10.644;2023-06-22T06:00:39;19.60;99.90
30069;DHT22;16894;49.456;10.644;2023-06-22T06:03:09;19.70;99.90
30069;DHT22;16894;49.456;10.644;2023-06-22T06:05:35;19.80;99.90
30069;DHT22;16894;49.456;10.644;2023-06-22T06:08:03;19.90;99.90
30069;DHT22;16894;49.456;10.644;2023-06-22T06:10:31;19.90;99.90
30069;DHT22;16894;49.456;10.644;2023-06-22T06:12:57;20.00;99.90
30069;DHT22;16894;49.456;10.644;2023-06-22T06:15:23;20.20;99.90
30069;DHT22;16894;49.456;10.644;2023-06-22T06:17:52;20.30;99.90
30069;DHT22;16894;49.456;10.644;2023-06-22T06:20:20;20.50;99.90
30069;DHT22;16894;49.456;10.644;2023-06-22T06:22:46;20.70;99.90
30069;DHT22;16894;49.456;10.644;2023-06-22T06:25:13;20.80;99.90
30069;DHT22;16894;49.456;10.644;2023-06-22T06:27:46;20.90;99.90
30069;DHT22;16894;49.456;10.644;2023-06-22T06:30:13;21.00;99.90
30069;DHT22;16894;49.456;10.644;2023-06-22T06:32:41;21.10;99.90
30069;DHT22;16894;49.456;10.644;2023-06-22T06:35:10;21.30;99.90
30069;DHT22;16894;49.456;10.644;2023-06-22T06:37:40;21.30;99.90
30069;DHT22;16894;49.456;10.644;2023-06-22T06:40:07;21.40;99.90
30069;DHT22;16894;49.456;10.644;2023-06-22T06:42:45;21.50;99.90
30069;DHT22;16894;49.456;10.644;2023-06-22T06:45:21;21.50;99.90
30069;DHT22;16894;49.456;10.644;2023-06-22T06:47:49;21.60;99.90
30069;DHT22;16894;49.456;10.644;2023-06-22T06:50:14;21.70;99.90
30069;DHT22;16894;49.456;10.644;2023-06-22T06:52:40;21.80;99.90
30069;DHT22;16894;49.456;10.644;2023-06-22T06:55:07;21.90;99.90
30069;DHT22;16894;49.456;10.644;2023-06-22T06:57:35;22.00;99.90
30069;DHT22;16894;49.456;10.644;2023-06-22T07:00:03;22.00;99.90
30069;DHT22;16894;49.456;10.644;2023-06-22T07:02:34;22.00;99.90
30069;DHT22;16894;49.456;10.644;2023-06-22T07:04:59;22.10;99.90
30069;DHT22;16894;49.456;10.644;2023-06-22T07:07:25;22.20;99.90
30069;DHT22;16894;49.456;10.644;2023-06-22T07:09:51;22.30;99.90
30069;DHT22;16894;49.456;10.644;2023-06-22T07:12:16;22.40;99.90
30069;DHT22;16894;49.456;10.644;2023-06-22T07:14:42;22.40;99.90
30069;DHT22;16894;49.456;10.644;2023-06-22T07:17:07;22.50;99.90
30069;DHT22;16894;49.456;10.644;2023-06-22T07:19:33;22.60;99.90
30069;DHT22;16894;49.456;10.644;2023-06-22T07:21:59;22.70;99.90
30069;DHT22;16894;49.456;10.644;2023-06-22T07:24:25;22.80;99.90
30069;DHT22;16894;49.456;10.644;2023-06-22T07:26:51;22.90;99.90
30069;DHT22;16894;49.456;10.644;2023-06-22T07:29:17;22.90;99.90
30069;DHT22;16894;49.456;10.644;2023-06-22T07:31:43;23.00;99.90
30069;DHT22;16894;49.456;10.644;2023-06-22T07:34:08;23.20;99.90
30069;DHT22;16894;49.456;10.644;2023-06-22T07:36:34;23.40;99.90
30069;DHT22;16894;49.456;10.644;2023-06-22T07:39:04;23.50;99.90
30069;DHT22;16894;49.456;10.644;2023-06-22T07:41:30;23.70;99.90
30069;DHT22;16894;49.456;10.644;2023-06-22T07:43:56;23.80;99.90
30069;DHT22;16894;49.456;10.644;2023-06-22T07:46:22;24.00;99.90
30069;DHT22;16894;49.456;10.644;2023-06-22T07:48:47;24.20;99.90
30069;DHT22;16894;49.456;10.644;2023-06-22T07:51:13;24.30;99.90
30069;DHT22;16894;49.456;10.644;2023-06-22T07:53:41;24.40;99.90
30069;DHT22;16894;49.456;10.644;2023-06-22T07:56:10;24.50;99.90
30069;DHT22;16894;49.456;10.644;2023-06-22T07:58:35;24.60;99.90
30069;DHT22;16894;49.456;10.644;2023-06-22T08:01:02;24.80;99.90
30069;DHT22;16894;49.456;10.644;2023-06-22T08:03:28;24.70;99.90
30069;DHT22;16894;49.456;10.644;2023-06-22T08:05:54;24.60;99.90
30069;DHT22;16894;49.456;10.644;2023-06-22T08:08:20;24.60;99.90
30069;DHT22;16894;49.456;10.644;2023-06-22T08:10:45;24.70;99.90
30069;DHT22;16894;49.456;10.644;2023-06-22T08:13:11;24.80;99.90
30069;DHT22;16894;49.456;10.644;2023-06-22T08:15:37;24.80;99.90
30069;DHT22;16894;49.456;10.644;2023-06-22T08:18:03;25.00;99.90
30069;DHT22;16894;49.456;10.644;2023-06-22T08:20:28;25.10;99.90
30069;DHT22;16894;49.456;10.644;2023-06-22T08:22:55;25.30;99.90
30069;DHT22;16894;49.456;10.644;2023-06-22T08:25:23;25.60;99.90
30069;DHT22;16894;49.456;10.644;2023-06-22T08:27:49;25.70;99.90
30069;DHT22;16894;49.456;10.644;2023-06-22T08:30:16;25.90;99.90
30069;DHT22;16894;49.456;10.644;2023-06-22T08:32:43;26.10;99.90
30069;DHT22;16894;49.456;10.644;2023-06-22T08:35:09;26.30;99.90
30069;DHT22;16894;49.456;10.644;2023-06-22T08:37:35;26.50;99.90
30069;DHT22;16894;49.456;10.644;2023-06-22T08:40:03;26.70;99.90
30069;DHT22;16894;49.456;10.644;2023-06-22T08:42:36;27.00;99.70
30069;DHT22;16894;49.456;10.644;2023-06-22T08:45:01;27.20;99.70
30069;DHT22;16894;49.456;10.644;2023-06-22T08:47:27;27.20;99.40
30069;DHT22;16894;49.456;10.644;2023-06-22T08:49:53;27.30;99.10
30069;DHT22;16894;49.456;10.644;2023-06-22T08:52:20;27.50;98.80
30069;DHT22;16894;49.456;10.644;2023-06-22T08:54:46;27.80;98.10
30069;DHT22;16894;49.456;10.644;2023-06-22T08:57:12;28.00;97.60
30069;DHT22;16894;49.456;10.644;2023-06-22T08:59:38;28.10;97.20
30069;DHT22;16894;49.456;10.644;2023-06-22T09:02:04;28.30;97.30
30069;DHT22;16894;49.456;10.644;2023-06-22T09:04:29;28.40;96.90
30069;DHT22;16894;49.456;10.644;2023-06-22T09:06:57;28.40;97.10
30069;DHT22;16894;49.456;10.644;2023-06-22T09:09:23;28.40;96.70
30069;DHT22;16894;49.456;10.644;2023-06-22T09:11:49;28.50;96.00
30069;DHT22;16894;49.456;10.644;2023-06-22T09:14:14;28.60;96.20
30069;DHT22;16894;49.456;10.644;2023-06-22T09:16:40;28.70;96.10
30069;DHT22;16894;49.456;10.644;2023-06-22T09:19:06;29.00;96.00
30069;DHT22;16894;49.456;10.644;2023-06-22T09:21:31;28.80;95.50
30069;DHT22;16894;49.456;10.644;2023-06-22T09:23:58;28.90;95.80
30069;DHT22;16894;49.456;10.644;2023-06-22T09:26:23;29.30;95.10
30069;DHT22;16894;49.456;10.644;2023-06-22T09:28:49;29.50;95.10
30069;DHT22;16894;49.456;10.644;2023-06-22T09:31:15;30.00;94.80
30069;DHT22;16894;49.456;10.644;2023-06-22T09:33:42;30.20;94.30
30069;DHT22;16894;49.456;10.644;2023-06-22T09:36:08;30.20;93.80
30069;DHT22;16894;49.456;10.644;2023-06-22T09:38:37;30.30;93.40
30069;DHT22;16894;49.456;10.644;2023-06-22T09:41:04;30.40;93.20
30069;DHT22;16894;49.456;10.644;2023-06-22T09:43:30;30.60;92.70
30069;DHT22;16894;49.456;10.644;2023-06-22T09:45:56;30.50;92.80
30069;DHT22;16894;49.456;10.644;2023-06-22T09:48:22;30.90;93.10
30069;DHT22;16894;49.456;10.644;2023-06-22T09:50:48;30.60;92.10
30069;DHT22;16894;49.456;10.644;2023-06-22T09:53:13;31.10;92.20
30069;DHT22;16894;49.456;10.644;2023-06-22T09:55:39;31.70;91.60
30069;DHT22;16894;49.456;10.644;2023-06-22T09:58:05;32.00;91.20
30069;DHT22;16894;49.456;10.644;2023-06-22T10:00:30;32.20;90.60
30069;DHT22;16894;49.456;10.644;2023-06-22T10:02:56;32.50;89.70
30069;DHT22;16894;49.456;10.644;2023-06-22T10:05:23;32.90;90.00
30069;DHT22;16894;49.456;10.644;2023-06-22T10:07:50;33.00;87.80
30069;DHT22;16894;49.456;10.644;2023-06-22T10:10:16;33.40;86.70
30069;DHT22;16894;49.456;10.644;2023-06-22T10:12:47;33.80;85.70
30069;DHT22;16894;49.456;10.644;2023-06-22T10:15:13;33.60;83.40
30069;DHT22;16894;49.456;10.644;2023-06-22T10:17:39;33.80;83.90
30069;DHT22;16894;49.456;10.644;2023-06-22T10:20:06;33.70;82.80
30069;DHT22;16894;49.456;10.644;2023-06-22T10:22:40;33.90;83.10
30069;DHT22;16894;49.456;10.644;2023-06-22T10:25:07;33.80;82.80
30069;DHT22;16894;49.456;10.644;2023-06-22T10:27:32;33.80;82.60
30069;DHT22;16894;49.456;10.644;2023-06-22T10:29:58;33.40;82.80
30069;DHT22;16894;49.456;10.644;2023-06-22T10:32:24;33.70;82.50
30069;DHT22;16894;49.456;10.644;2023-06-22T10:34:49;34.10;83.20
30069;DHT22;16894;49.456;10.644;2023-06-22T10:37:15;34.20;80.80
30069;DHT22;16894;49.456;10.644;2023-06-22T10:39:40;34.40;80.80
30069;DHT22;16894;49.456;10.644;2023-06-22T10:42:07;34.80;79.30
30069;DHT22;16894;49.456;10.644;2023-06-22T10:44:33;34.80;77.30
30069;DHT22;16894;49.456;10.644;2023-06-22T10:46:59;34.90;79.90
30069;DHT22;16894;49.456;10.644;2023-06-22T10:49:24;35.20;75.80
30069;DHT22;16894;49.456;10.644;2023-06-22T10:51:50;35.40;76.50
30069;DHT22;16894;49.456;10.644;2023-06-22T10:54:16;35.10;75.60
30069;DHT22;16894;49.456;10.644;2023-06-22T10:56:43;35.00;76.50
30069;DHT22;16894;49.456;10.644;2023-06-22T10:59:09;34.90;74.70
30069;DHT22;16894;49.456;10.644;2023-06-22T11:01:35;34.50;75.30
30069;DHT22;16894;49.456;10.644;2023-06-22T11:04:01;34.20;76.00
30069;DHT22;16894;49.456;10.644;2023-06-22T11:06:27;34.30;74.90
30069;DHT22;16894;49.456;10.644;2023-06-22T11:08:52;34.90;74.40
30069;DHT22;16894;49.456;10.644;2023-06-22T11:11:18;35.20;73.60
30069;DHT22;16894;49.456;10.644;2023-06-22T11:13:44;35.90;73.90
30069;DHT22;16894;49.456;10.644;2023-06-22T11:16:11;36.30;71.80
30069;DHT22;16894;49.456;10.644;2023-06-22T11:18:36;36.80;69.80
30069;DHT22;16894;49.456;10.644;2023-06-22T11:21:02;36.80;70.20
30069;DHT22;16894;49.456;10.644;2023-06-22T11:23:28;37.20;70.00
30069;DHT22;16894;49.456;10.644;2023-06-22T11:25:54;37.50;69.20
30069;DHT22;16894;49.456;10.644;2023-06-22T11:28:20;37.70;66.80
30069;DHT22;16894;49.456;10.644;2023-06-22T11:30:46;38.10;66.80
30069;DHT22;16894;49.456;10.644;2023-06-22T11:33:11;37.90;66.50
30069;DHT22;16894;49.456;10.644;2023-06-22T11:35:37;38.00;66.20
30069;DHT22;16894;49.456;10.644;2023-06-22T11:38:03;38.00;65.90
30069;DHT22;16894;49.456;10.644;2023-06-22T11:40:30;37.80;64.70
30069;DHT22;16894;49.456;10.644;2023-06-22T11:42:56;37.50;66.80
30069;DHT22;16894;49.456;10.644;2023-06-22T11:45:21;37.20;64.90
30069;DHT22;16894;49.456;10.644;2023-06-22T11:47:47;36.90;66.10
30069;DHT22;16894;49.456;10.644;2023-06-22T11:50:13;36.80;66.70
30069;DHT22;16894;49.456;10.644;2023-06-22T11:52:39;37.10;65.60
30069;DHT22;16894;49.456;10.644;2023-06-22T11:55:05;37.20;65.20
30069;DHT22;16894;49.456;10.644;2023-06-22T11:57:36;36.90;64.30
30069;DHT22;16894;49.456;10.644;2023-06-22T12:00:03;36.70;64.90
30069;DHT22;16894;49.456;10.644;2023-06-22T12:02:43;36.20;64.90
30069;DHT22;16894;49.456;10.644;2023-06-22T12:05:10;35.50;66.00
30069;DHT22;16894;49.456;10.644;2023-06-22T12:07:36;35.90;66.30
30069;DHT22;16894;49.456;10.644;2023-06-22T12:10:03;36.10;65.10
30069;DHT22;16894;49.456;10.644;2023-06-22T12:12:29;36.30;66.00
30069;DHT22;16894;49.456;10.644;2023-06-22T12:14:54;37.40;65.40
30069;DHT22;16894;49.456;10.644;2023-06-22T12:17:21;38.70;65.30
30069;DHT22;16894;49.456;10.644;2023-06-22T12:19:47;39.40;62.40
30069;DHT22;16894;49.456;10.644;2023-06-22T12:22:12;39.30;61.50
30069;DHT22;16894;49.456;10.644;2023-06-22T12:24:38;39.10;61.30
30069;DHT22;16894;49.456;10.644;2023-06-22T12:27:04;38.90;61.30
30069;DHT22;16894;49.456;10.644;2023-06-22T12:29:29;39.30;63.10
30069;DHT22;16894;49.456;10.644;2023-06-22T12:31:55;39.90;60.40
30069;DHT22;16894;49.456;10.644;2023-06-22T12:34:21;39.80;59.60
30069;DHT22;16894;49.456;10.644;2023-06-22T12:36:46;39.40;59.00
30069;DHT22;16894;49.456;10.644;2023-06-22T12:39:15;38.80;60.40
30069;DHT22;16894;49.456;10.644;2023-06-22T12:41:40;38.70;61.80
30069;DHT22;16894;49.456;10.644;2023-06-22T12:44:06;38.40;61.10
30069;DHT22;16894;49.456;10.644;2023-06-22T12:46:32;38.30;61.80
30069;DHT22;16894;49.456;10.644;2023-06-22T12:49:03;38.20;60.90
30069;DHT22;16894;49.456;10.644;2023-06-22T12:51:29;37.80;61.50
30069;DHT22;16894;49.456;10.644;2023-06-22T12:53:55;37.80;61.60
30069;DHT22;16894;49.456;10.644;2023-06-22T12:56:21;38.00;61.60
30069;DHT22;16894;49.456;10.644;2023-06-22T12:58:47;38.20;61.40
30069;DHT22;16894;49.456;10.644;2023-06-22T13:01:12;38.00;59.70
30069;DHT22;16894;49.456;10.644;2023-06-22T13:03:38;37.80;60.70
30069;DHT22;16894;49.456;10.644;2023-06-22T13:06:04;38.30;59.40
30069;DHT22;16894;49.456;10.644;2023-06-22T13:08:30;38.60;58.70
30069;DHT22;16894;49.456;10.644;2023-06-22T13:10:55;38.30;61.00
30069;DHT22;16894;49.456;10.644;2023-06-22T13:13:25;38.90;60.50
30069;DHT22;16894;49.456;10.644;2023-06-22T13:15:52;39.40;60.00
30069;DHT22;16894;49.456;10.644;2023-06-22T13:18:19;39.30;58.70
30069;DHT22;16894;49.456;10.644;2023-06-22T13:20:45;38.00;58.90
30069;DHT22;16894;49.456;10.644;2023-06-22T13:23:11;38.00;61.80
30069;DHT22;16894;49.456;10.644;2023-06-22T13:25:36;37.40;60.40
30069;DHT22;16894;49.456;10.644;2023-06-22T13:28:02;37.30;60.40
30069;DHT22;16894;49.456;10.644;2023-06-22T13:30:28;36.90;61.50
30069;DHT22;16894;49.456;10.644;2023-06-22T13:32:54;36.60;61.80
30069;DHT22;16894;49.456;10.644;2023-06-22T13:35:19;35.90;61.20
30069;DHT22;16894;49.456;10.644;2023-06-22T13:37:45;35.40;62.70
30069;DHT22;16894;49.456;10.644;2023-06-22T13:40:10;34.90;62.80
30069;DHT22;16894;49.456;10.644;2023-06-22T13:42:36;34.40;63.40
30069;DHT22;16894;49.456;10.644;2023-06-22T13:45:02;34.30;64.70
30069;DHT22;16894;49.456;10.644;2023-06-22T13:47:29;34.50;64.60
30069;DHT22;16894;49.456;10.644;2023-06-22T13:49:55;34.90;63.50
30069;DHT22;16894;49.456;10.644;2023-06-22T13:52:21;35.80;63.30
30069;DHT22;16894;49.456;10.644;2023-06-22T13:54:46;36.90;63.10
30069;DHT22;16894;49.456;10.644;2023-06-22T13:57:12;37.80;60.60
30069;DHT22;16894;49.456;10.644;2023-06-22T13:59:37;38.30;60.20
30069;DHT22;16894;49.456;10.644;2023-06-22T14:02:03;38.00;59.50
30069;DHT22;16894;49.456;10.644;2023-06-22T14:04:29;37.20;60.90
30069;DHT22;16894;49.456;10.644;2023-06-22T14:06:55;36.10;62.10
30069;DHT22;16894;49.456;10.644;2023-06-22T14:09:21;35.70;62.40
30069;DHT22;16894;49.456;10.644;2023-06-22T14:11:47;35.40;63.30
30069;DHT22;16894;49.456;10.644;2023-06-22T14:14:13;35.60;63.40
30069;DHT22;16894;49.456;10.644;2023-06-22T14:16:38;36.10;62.40
30069;DHT22;16894;49.456;10.644;2023-06-22T14:19:04;36.20;61.70
30069;DHT22;16894;49.456;10.644;2023-06-22T14:21:30;36.90;62.70
30069;DHT22;16894;49.456;10.644;2023-06-22T14:23:55;37.60;60.80
30069;DHT22;16894;49.456;10.644;2023-06-22T14:26:21;38.30;61.70
30069;DHT22;16894;49.456;10.644;2023-06-22T14:28:48;38.50;60.40
30069;DHT22;16894;49.456;10.644;2023-06-22T14:31:16;38.40;58.50
30069;DHT22;16894;49.456;10.644;2023-06-22T14:33:47;38.30;59.20
30069;DHT22;16894;49.456;10.644;2023-06-22T14:36:13;37.70;60.00
30069;DHT22;16894;49.456;10.644;2023-06-22T14:38:39;37.80;59.10
30069;DHT22;16894;49.456;10.644;2023-06-22T14:41:05;38.20;60.00
30069;DHT22;16894;49.456;10.644;2023-06-22T14:43:30;39.00;59.30
30069;DHT22;16894;49.456;10.644;2023-06-22T14:45:56;40.20;58.00
30069;DHT22;16894;49.456;10.644;2023-06-22T14:48:22;40.60;56.70
30069;DHT22;16894;49.456;10.644;2023-06-22T14:50:47;40.40;57.00
30069;DHT22;16894;49.456;10.644;2023-06-22T14:53:13;40.30;56.10
30069;DHT22;16894;49.456;10.644;2023-06-22T14:55:40;40.10;55.80
30069;DHT22;16894;49.456;10.644;2023-06-22T14:58:05;41.00;56.30
30069;DHT22;16894;49.456;10.644;2023-06-22T15:00:31;42.00;54.30
30069;DHT22;16894;49.456;10.644;2023-06-22T15:02:57;41.50;54.00
30069;DHT22;16894;49.456;10.644;2023-06-22T15:05:24;40.20;56.20
30069;DHT22;16894;49.456;10.644;2023-06-22T15:07:50;39.80;55.30
30069;DHT22;16894;49.456;10.644;2023-06-22T15:10:16;39.20;55.40
30069;DHT22;16894;49.456;10.644;2023-06-22T15:12:42;37.90;58.20
30069;DHT22;16894;49.456;10.644;2023-06-22T15:15:08;37.40;58.40
30069;DHT22;16894;49.456;10.644;2023-06-22T15:17:34;37.70;56.60
30069;DHT22;16894;49.456;10.644;2023-06-22T15:20:00;38.00;56.70